sensor_id;sensor_type;location;lat;lon;timestamp;pressure;altitude;pressure_sealevel;temperature;humidity
75538;BME280;64121;48.666;8.114;2022-10-16T00:01:48;99855.69;;;17.06;78.58
75538;BME280;64121;48.666;8.114;2022-10-16T00:04:13;99852.47;;;17.01;79.38
75538;BME280;64121;48.666;8.114;2022-10-16T00:06:39;99855.25;;;16.97;79.23
75538;BME280;64121;48.666;8.114;2022-10-16T00:09:04;99845.22;;;16.96;80.10
75538;BME280;64121;48.666;8.114;2022-10-16T00:11:33;99848.81;;;16.93;79.65
75538;BME280;64121;48.666;8.114;2022-10-16T00:14:00;99835.91;;;16.85;79.93
75538;BME280;64121;48.666;8.114;2022-10-16T00:16:28;99833.50;;;16.83;79.81
75538;BME280;64121;48.666;8.114;2022-10-16T00:18:53;99838.72;;;16.78;80.66
75538;BME280;64121;48.666;8.114;2022-10-16T00:21:21;99846.34;;;16.77;81.14
75538;BME280;64121;48.666;8.114;2022-10-16T00:23:50;99835.13;;;16.84;79.56
75538;BME280;64121;48.666;8.114;2022-10-16T00:26:16;99840.34;;;16.86;79.86
75538;BME280;64121;48.666;8.114;2022-10-16T00:28:42;99844.41;;;16.92;79.59
75538;BME280;64121;48.666;8.114;2022-10-16T00:31:09;99844.41;;;16.92;79.23
75538;BME280;64121;48.666;8.114;2022-10-16T00:33:38;99837.13;;;16.84;80.17
75538;BME280;64121;48.666;8.114;2022-10-16T00:36:04;99842.34;;;16.82;80.00
75538;BME280;64121;48.666;8.114;2022-10-16T00:38:31;99833.09;;;16.74;80.84
75538;BME280;64121;48.666;8.114;2022-10-16T00:40:56;99833.91;;;16.78;80.41
75538;BME280;64121;48.666;8.114;2022-10-16T00:43:39;99837.00;;;16.66;81.23
75538;BME280;64121;48.666;8.114;2022-10-16T00:46:12;99851.84;;;16.63;81.27
75538;BME280;64121;48.666;8.114;2022-10-16T00:48:40;99856.72;;;16.70;80.77
75538;BME280;64121;48.666;8.114;2022-10-16T00:51:06;99853.56;;;16.75;80.49
75538;BME280;64121;48.666;8.114;2022-10-16T00:53:32;99860.34;;;16.70;81.13
75538;BME280;64121;48.666;8.114;2022-10-16T00:55:58;99858.72;;;16.69;80.98
75538;BME280;64121;48.666;8.114;2022-10-16T00:58:23;99858.69;;;16.65;82.42
75538;BME280;64121;48.666;8.114;2022-10-16T01:00:49;99861.00;;;16.53;82.47
75538;BME280;64121;48.666;8.114;2022-10-16T01:03:27;99861.00;;;16.49;82.63
75538;BME280;64121;48.666;8.114;2022-10-16T01:06:01;99858.63;;;16.55;82.89
75538;BME280;64121;48.666;8.114;2022-10-16T01:08:34;99859.78;;;16.50;82.60
75538;BME280;64121;48.666;8.114;2022-10-16T01:11:09;99855.34;;;16.42;83.19
75538;BME280;64121;48.666;8.114;2022-10-16T01:13:41;99854.06;;;16.36;84.19
75538;BME280;64121;48.666;8.114;2022-10-16T01:16:13;99846.03;;;16.31;84.34
75538;BME280;64121;48.666;8.114;2022-10-16T01:18:44;99849.22;;;16.26;84.97
75538;BME280;64121;48.666;8.114;2022-10-16T01:21:16;99850.00;;;16.23;84.16
75538;BME280;64121;48.666;8.114;2022-10-16T01:23:51;99855.19;;;16.21;84.31
75538;BME280;64121;48.666;8.114;2022-10-16T01:26:33;99856.41;;;16.20;84.64
75538;BME280;64121;48.666;8.114;2022-10-16T01:29:06;99862.03;;;16.27;83.73
75538;BME280;64121;48.666;8.114;2022-10-16T01:31:36;99864.56;;;16.39;83.32
75538;BME280;64121;48.666;8.114;2022-10-16T01:34:05;99868.09;;;16.32;83.58
75538;BME280;64121;48.666;8.114;2022-10-16T01:36:37;99872.50;;;16.33;83.63
75538;BME280;64121;48.666;8.114;2022-10-16T01:39:05;99873.31;;;16.30;84.23
75538;BME280;64121;48.666;8.114;2022-10-16T01:41:34;99868.44;;;16.24;84.33
75538;BME280;64121;48.666;8.114;2022-10-16T01:44:05;99855.94;;;16.14;84.95
75538;BME280;64121;48.666;8.114;2022-10-16T01:46:34;99861.91;;;16.09;85.42
75538;BME280;64121;48.666;8.114;2022-10-16T01:49:02;99851.03;;;16.00;86.31
75538;BME280;64121;48.666;8.114;2022-10-16T01:51:28;99852.59;;;15.98;85.99
75538;BME280;64121;48.666;8.114;2022-10-16T01:53:55;99857.34;;;15.90;86.43
75538;BME280;64121;48.666;8.114;2022-10-16T01:56:24;99851.75;;;15.90;86.50
75538;BME280;64121;48.666;8.114;2022-10-16T01:58:52;99846.91;;;15.87;86.91
75538;BME280;64121;48.666;8.114;2022-10-16T02:01:22;99844.47;;;15.82;87.09
75538;BME280;64121;48.666;8.114;2022-10-16T02:03:50;99860.03;;;15.80;87.52
75538;BME280;64121;48.666;8.114;2022-10-16T02:06:16;99860.44;;;15.78;87.65
75538;BME280;64121;48.666;8.114;2022-10-16T02:08:42;99856.38;;;15.72;87.56
75538;BME280;64121;48.666;8.114;2022-10-16T02:11:08;99864.44;;;15.77;88.07
75538;BME280;64121;48.666;8.114;2022-10-16T02:13:38;99853.16;;;15.70;88.20
75538;BME280;64121;48.666;8.114;2022-10-16T02:16:04;99864.75;;;15.65;88.24
75538;BME280;64121;48.666;8.114;2022-10-16T02:18:31;99874.28;;;15.60;88.71
75538;BME280;64121;48.666;8.114;2022-10-16T02:20:59;99866.25;;;15.59;88.36
75538;BME280;64121;48.666;8.114;2022-10-16T02:23:30;99865.78;;;15.53;88.59
75538;BME280;64121;48.666;8.114;2022-10-16T02:26:03;99872.56;;;15.49;88.50
75538;BME280;64121;48.666;8.114;2022-10-16T02:28:36;99876.13;;;15.45;89.00
75538;BME280;64121;48.666;8.114;2022-10-16T02:31:04;99879.25;;;15.40;89.32
75538;BME280;64121;48.666;8.114;2022-10-16T02:33:33;99871.59;;;15.34;89.56
75538;BME280;64121;48.666;8.114;2022-10-16T02:36:00;99867.19;;;15.33;89.57
75538;BME280;64121;48.666;8.114;2022-10-16T02:38:26;99861.56;;;15.33;89.91
75538;BME280;64121;48.666;8.114;2022-10-16T02:40:52;99876.72;;;15.25;90.29
75538;BME280;64121;48.666;8.114;2022-10-16T02:43:17;99880.66;;;15.24;89.78
75538;BME280;64121;48.666;8.114;2022-10-16T02:45:43;99877.84;;;15.20;90.37
75538;BME280;64121;48.666;8.114;2022-10-16T02:48:09;99875.06;;;15.24;90.36
75538;BME280;64121;48.666;8.114;2022-10-16T02:50:35;99874.22;;;15.20;90.03
75538;BME280;64121;48.666;8.114;2022-10-16T02:53:01;99882.22;;;15.18;90.06
75538;BME280;64121;48.666;8.114;2022-10-16T02:55:26;99880.19;;;15.14;90.54
75538;BME280;64121;48.666;8.114;2022-10-16T02:57:51;99888.56;;;15.11;91.22
75538;BME280;64121;48.666;8.114;2022-10-16T03:00:17;99882.19;;;15.14;91.17
75538;BME280;64121;48.666;8.114;2022-10-16T03:02:43;99876.81;;;15.02;91.00
75538;BME280;64121;48.666;8.114;2022-10-16T03:05:09;99877.53;;;14.95;91.65
75538;BME280;64121;48.666;8.114;2022-10-16T03:07:36;99876.19;;;14.85;91.74
75538;BME280;64121;48.666;8.114;2022-10-16T03:10:02;99876.97;;;14.82;92.46
75538;BME280;64121;48.666;8.114;2022-10-16T03:12:28;99879.78;;;14.82;92.36
75538;BME280;64121;48.666;8.114;2022-10-16T03:14:53;99883.00;;;14.84;92.11
75538;BME280;64121;48.666;8.114;2022-10-16T03:17:19;99879.00;;;14.85;92.21
75538;BME280;64121;48.666;8.114;2022-10-16T03:19:44;99878.19;;;14.85;92.15
75538;BME280;64121;48.666;8.114;2022-10-16T03:22:09;99872.66;;;14.89;91.76
75538;BME280;64121;48.666;8.114;2022-10-16T03:24:36;99872.31;;;14.94;91.66
75538;BME280;64121;48.666;8.114;2022-10-16T03:27:02;99863.91;;;14.94;91.39
75538;BME280;64121;48.666;8.114;2022-10-16T03:29:27;99864.25;;;14.89;91.45
75538;BME280;64121;48.666;8.114;2022-10-16T03:31:53;99864.63;;;14.87;91.61
75538;BME280;64121;48.666;8.114;2022-10-16T03:34:18;99863.44;;;14.88;91.76
75538;BME280;64121;48.666;8.114;2022-10-16T03:36:43;99868.19;;;14.84;91.72
75538;BME280;64121;48.666;8.114;2022-10-16T03:39:09;99857.75;;;14.81;92.34
75538;BME280;64121;48.666;8.114;2022-10-16T03:41:35;99854.91;;;14.77;92.28
75538;BME280;64121;48.666;8.114;2022-10-16T03:44:01;99861.69;;;14.76;92.44
75538;BME280;64121;48.666;8.114;2022-10-16T03:46:26;99850.53;;;14.80;92.54
75538;BME280;64121;48.666;8.114;2022-10-16T03:48:51;99853.13;;;14.66;93.03
75538;BME280;64121;48.666;8.114;2022-10-16T03:51:17;99851.94;;;14.67;93.18
75538;BME280;64121;48.666;8.114;2022-10-16T03:53:42;99863.69;;;14.76;92.63
75538;BME280;64121;48.666;8.114;2022-10-16T03:56:07;99878.06;;;14.74;92.96
75538;BME280;64121;48.666;8.114;2022-10-16T03:58:34;99880.50;;;14.76;92.36
75538;BME280;64121;48.666;8.114;2022-10-16T04:01:00;99876.47;;;14.73;92.37
75538;BME280;64121;48.666;8.114;2022-10-16T04:03:25;99866.75;;;14.67;92.68
75538;BME280;64121;48.666;8.114;2022-10-16T04:05:50;99881.47;;;14.61;92.56
75538;BME280;64121;48.666;8.114;2022-10-16T04:08:16;99886.66;;;14.59;92.65
75538;BME280;64121;48.666;8.114;2022-10-16T04:10:42;99887.41;;;14.56;92.93
75538;BME280;64121;48.666;8.114;2022-10-16T04:13:08;99890.09;;;14.48;93.00
75538;BME280;64121;48.666;8.114;2022-10-16T04:15:34;99899.53;;;14.40;93.25
75538;BME280;64121;48.666;8.114;2022-10-16T04:18:00;99900.31;;;14.37;93.15
75538;BME280;64121;48.666;8.114;2022-10-16T04:20:25;99910.66;;;14.33;93.08
75538;BME280;64121;48.666;8.114;2022-10-16T04:22:50;99903.69;;;14.23;93.34
75538;BME280;64121;48.666;8.114;2022-10-16T04:25:16;99908.41;;;14.19;93.68
75538;BME280;64121;48.666;8.114;2022-10-16T04:27:41;99906.44;;;14.20;93.79
75538;BME280;64121;48.666;8.114;2022-10-16T04:30:07;99914.81;;;14.20;93.64
75538;BME280;64121;48.666;8.114;2022-10-16T04:32:34;99913.53;;;14.14;93.95
75538;BME280;64121;48.666;8.114;2022-10-16T04:34:59;99913.44;;;14.10;93.88
75538;BME280;64121;48.666;8.114;2022-10-16T04:37:25;99908.66;;;14.11;94.23
75538;BME280;64121;48.666;8.114;2022-10-16T04:39:51;99909.16;;;14.16;94.16
75538;BME280;64121;48.666;8.114;2022-10-16T04:42:16;99913.44;;;14.10;94.49
75538;BME280;64121;48.666;8.114;2022-10-16T04:44:42;99921.47;;;14.12;94.30
75538;BME280;64121;48.666;8.114;2022-10-16T04:47:07;99931.78;;;14.08;94.25
75538;BME280;64121;48.666;8.114;2022-10-16T04:49:34;99932.91;;;14.03;94.60
75538;BME280;64121;48.666;8.114;2022-10-16T04:51:59;99933.25;;;13.98;94.53
75538;BME280;64121;48.666;8.114;2022-10-16T04:54:24;99938.53;;;14.03;94.42
75538;BME280;64121;48.666;8.114;2022-10-16T04:56:50;99938.41;;;13.96;94.85
75538;BME280;64121;48.666;8.114;2022-10-16T04:59:15;99937.06;;;13.90;94.78
75538;BME280;64121;48.666;8.114;2022-10-16T05:01:41;99947.88;;;13.91;94.83
75538;BME280;64121;48.666;8.114;2022-10-16T05:04:06;99951.94;;;13.94;94.71
75538;BME280;64121;48.666;8.114;2022-10-16T05:06:33;99947.88;;;13.91;94.71
75538;BME280;64121;48.666;8.114;2022-10-16T05:08:58;99950.69;;;13.91;94.68
75538;BME280;64121;48.666;8.114;2022-10-16T05:11:24;99958.72;;;13.93;94.84
75538;BME280;64121;48.666;8.114;2022-10-16T05:13:49;99954.28;;;13.92;95.07
75538;BME280;64121;48.666;8.114;2022-10-16T05:16:15;99957.09;;;13.92;95.11
75538;BME280;64121;48.666;8.114;2022-10-16T05:18:40;99965.56;;;13.96;94.96
75538;BME280;64121;48.666;8.114;2022-10-16T05:21:06;99967.63;;;13.99;95.03
75538;BME280;64121;48.666;8.114;2022-10-16T05:23:33;99978.81;;;13.99;95.13
75538;BME280;64121;48.666;8.114;2022-10-16T05:25:59;99973.22;;;13.99;95.32
75538;BME280;64121;48.666;8.114;2022-10-16T05:28:24;99967.19;;;13.97;95.23
75538;BME280;64121;48.666;8.114;2022-10-16T05:30:50;99974.78;;;13.96;95.33
75538;BME280;64121;48.666;8.114;2022-10-16T05:33:15;99968.06;;;14.01;95.05
75538;BME280;64121;48.666;8.114;2022-10-16T05:35:41;99965.63;;;13.99;95.33
75538;BME280;64121;48.666;8.114;2022-10-16T05:38:06;99962.31;;;13.93;95.57
75538;BME280;64121;48.666;8.114;2022-10-16T05:40:33;99971.16;;;13.96;95.76
75538;BME280;64121;48.666;8.114;2022-10-16T05:42:58;99971.22;;;13.99;95.60
75538;BME280;64121;48.666;8.114;2022-10-16T05:45:23;99964.81;;;13.99;95.47
75538;BME280;64121;48.666;8.114;2022-10-16T05:47:49;99951.28;;;14.01;nan
75538;BME280;64121;48.666;8.114;2022-10-16T05:50:14;99953.25;;;14.00;95.53
75538;BME280;64121;48.666;8.114;2022-10-16T05:52:39;99961.22;;;13.98;95.41
75538;BME280;64121;48.666;8.114;2022-10-16T05:55:05;99961.53;;;14.16;95.38
75538;BME280;64121;48.666;8.114;2022-10-16T05:57:32;99973.34;;;14.06;95.35
75538;BME280;64121;48.666;8.114;2022-10-16T05:59:57;99980.91;;;14.05;95.36
75538;BME280;64121;48.666;8.114;2022-10-16T06:02:23;99995.72;;;14.06;95.38
75538;BME280;64121;48.666;8.114;2022-10-16T06:04:48;99983.41;;;14.10;95.37
75538;BME280;64121;48.666;8.114;2022-10-16T06:07:13;99986.78;;;14.19;95.17
75538;BME280;64121;48.666;8.114;2022-10-16T06:09:39;99973.00;;;14.11;95.13
75538;BME280;64121;48.666;8.114;2022-10-16T06:12:04;99976.19;;;14.09;95.20
75538;BME280;64121;48.666;8.114;2022-10-16T06:14:32;99966.88;;;14.24;94.96
75538;BME280;64121;48.666;8.114;2022-10-16T06:16:57;99976.44;;;14.23;94.98
75538;BME280;64121;48.666;8.114;2022-10-16T06:19:22;99976.81;;;14.22;95.41
75538;BME280;64121;48.666;8.114;2022-10-16T06:21:48;99968.44;;;14.22;95.10
75538;BME280;64121;48.666;8.114;2022-10-16T06:24:13;99972.03;;;14.22;95.02
75538;BME280;64121;48.666;8.114;2022-10-16T06:26:38;99977.63;;;14.22;94.47
75538;BME280;64121;48.666;8.114;2022-10-16T06:29:04;99974.88;;;14.26;94.73
75538;BME280;64121;48.666;8.114;2022-10-16T06:31:31;99978.91;;;14.29;94.72
75538;BME280;64121;48.666;8.114;2022-10-16T06:33:57;99987.69;;;14.27;95.06
75538;BME280;64121;48.666;8.114;2022-10-16T06:36:23;99987.25;;;14.25;94.94
75538;BME280;64121;48.666;8.114;2022-10-16T06:38:49;99981.00;;;14.32;94.78
75538;BME280;64121;48.666;8.114;2022-10-16T06:41:16;99991.72;;;14.30;95.06
75538;BME280;64121;48.666;8.114;2022-10-16T06:43:41;99996.91;;;14.28;95.15
75538;BME280;64121;48.666;8.114;2022-10-16T06:46:09;100003.31;;;14.28;95.01
75538;BME280;64121;48.666;8.114;2022-10-16T06:48:36;100004.44;;;14.23;95.33
75538;BME280;64121;48.666;8.114;2022-10-16T06:51:04;100007.28;;;14.27;95.51
75538;BME280;64121;48.666;8.114;2022-10-16T06:53:31;99999.31;;;14.29;95.39
75538;BME280;64121;48.666;8.114;2022-10-16T06:55:57;100005.81;;;14.33;95.36
75538;BME280;64121;48.666;8.114;2022-10-16T06:58:22;100010.59;;;14.33;95.52
75538;BME280;64121;48.666;8.114;2022-10-16T07:00:48;100018.69;;;14.38;95.48
75538;BME280;64121;48.666;8.114;2022-10-16T07:03:13;100020.00;;;14.44;95.57
75538;BME280;64121;48.666;8.114;2022-10-16T07:05:40;100021.69;;;14.48;95.48
75538;BME280;64121;48.666;8.114;2022-10-16T07:08:06;100021.50;;;14.61;95.05
75538;BME280;64121;48.666;8.114;2022-10-16T07:10:32;100028.91;;;14.72;94.19
75538;BME280;64121;48.666;8.114;2022-10-16T07:12:58;100027.00;;;14.80;93.91
75538;BME280;64121;48.666;8.114;2022-10-16T07:15:24;100020.69;;;14.87;93.71
75538;BME280;64121;48.666;8.114;2022-10-16T07:17:49;100020.69;;;14.87;93.30
75538;BME280;64121;48.666;8.114;2022-10-16T07:20:15;100022.81;;;14.93;93.03
75538;BME280;64121;48.666;8.114;2022-10-16T07:22:41;100020.00;;;14.93;93.56
75538;BME280;64121;48.666;8.114;2022-10-16T07:25:07;100034.78;;;14.90;93.76
75538;BME280;64121;48.666;8.114;2022-10-16T07:27:33;100045.59;;;14.92;93.34
75538;BME280;64121;48.666;8.114;2022-10-16T07:29:58;100047.16;;;14.89;93.63
75538;BME280;64121;48.666;8.114;2022-10-16T07:32:24;100044.00;;;14.91;92.35
75538;BME280;64121;48.666;8.114;2022-10-16T07:34:49;100054.97;;;15.03;92.31
75538;BME280;64121;48.666;8.114;2022-10-16T07:37:14;100066.16;;;15.03;91.93
75538;BME280;64121;48.666;8.114;2022-10-16T07:39:41;100070.75;;;15.14;91.46
75538;BME280;64121;48.666;8.114;2022-10-16T07:42:06;100077.22;;;15.19;91.30
75538;BME280;64121;48.666;8.114;2022-10-16T07:44:32;100085.63;;;15.19;90.97
75538;BME280;64121;48.666;8.114;2022-10-16T07:46:57;100091.72;;;15.24;91.01
75538;BME280;64121;48.666;8.114;2022-10-16T07:49:22;100086.63;;;15.30;91.23
75538;BME280;64121;48.666;8.114;2022-10-16T07:51:48;100086.22;;;15.31;91.03
75538;BME280;64121;48.666;8.114;2022-10-16T07:54:13;100085.44;;;15.31;90.35
75538;BME280;64121;48.666;8.114;2022-10-16T07:56:40;100086.66;;;15.33;90.79
75538;BME280;64121;48.666;8.114;2022-10-16T07:59:05;100079.47;;;15.36;90.26
75538;BME280;64121;48.666;8.114;2022-10-16T08:01:30;100079.53;;;15.39;90.23
75538;BME280;64121;48.666;8.114;2022-10-16T08:03:56;100083.56;;;15.42;90.42
75538;BME280;64121;48.666;8.114;2022-10-16T08:06:22;100076.84;;;15.47;91.04
75538;BME280;64121;48.666;8.114;2022-10-16T08:08:47;100073.75;;;15.55;90.86
75538;BME280;64121;48.666;8.114;2022-10-16T08:11:13;100077.44;;;15.59;89.51
75538;BME280;64121;48.666;8.114;2022-10-16T08:13:40;100074.75;;;15.66;89.61
75538;BME280;64121;48.666;8.114;2022-10-16T08:16:06;100085.22;;;15.73;89.69
75538;BME280;64121;48.666;8.114;2022-10-16T08:18:31;100089.50;;;15.93;88.98
75538;BME280;64121;48.666;8.114;2022-10-16T08:20:58;100086.00;;;16.03;88.26
75538;BME280;64121;48.666;8.114;2022-10-16T08:23:24;100084.84;;;16.08;87.72
75538;BME280;64121;48.666;8.114;2022-10-16T08:25:49;100087.94;;;16.33;87.74
75538;BME280;64121;48.666;8.114;2022-10-16T08:28:15;100094.53;;;16.51;86.71
75538;BME280;64121;48.666;8.114;2022-10-16T08:30:41;100085.00;;;16.59;86.65
75538;BME280;64121;48.666;8.114;2022-10-16T08:33:07;100095.63;;;16.77;86.44
75538;BME280;64121;48.666;8.114;2022-10-16T08:35:32;100090.97;;;16.95;85.43
75538;BME280;64121;48.666;8.114;2022-10-16T08:37:58;100089.41;;;17.05;83.99
75538;BME280;64121;48.666;8.114;2022-10-16T08:40:25;100085.09;;;17.14;84.12
75538;BME280;64121;48.666;8.114;2022-10-16T08:43:04;100086.34;;;17.24;84.18
75538;BME280;64121;48.666;8.114;2022-10-16T08:45:51;100089.69;;;17.44;82.76
75538;BME280;64121;48.666;8.114;2022-10-16T08:48:20;100101.84;;;17.59;82.51
75538;BME280;64121;48.666;8.114;2022-10-16T08:50:49;100105.94;;;17.68;82.30
75538;BME280;64121;48.666;8.114;2022-10-16T08:53:21;100113.19;;;17.69;82.47
75538;BME280;64121;48.666;8.114;2022-10-16T08:55:50;100112.31;;;17.65;81.47
75538;BME280;64121;48.666;8.114;2022-10-16T08:58:17;100118.44;;;17.74;82.03
75538;BME280;64121;48.666;8.114;2022-10-16T09:00:46;100110.88;;;17.93;81.32
75538;BME280;64121;48.666;8.114;2022-10-16T09:03:19;100110.09;;;17.99;80.98
75538;BME280;64121;48.666;8.114;2022-10-16T09:05:57;100118.19;;;18.08;80.74
75538;BME280;64121;48.666;8.114;2022-10-16T09:08:32;100123.91;;;18.36;80.56
75538;BME280;64121;48.666;8.114;2022-10-16T09:11:06;100130.78;;;18.46;79.94
75538;BME280;64121;48.666;8.114;2022-10-16T09:13:45;100126.38;;;18.56;79.70
75538;BME280;64121;48.666;8.114;2022-10-16T09:16:18;100126.03;;;18.64;79.50
75538;BME280;64121;48.666;8.114;2022-10-16T09:18:50;100130.84;;;18.74;79.57
75538;BME280;64121;48.666;8.114;2022-10-16T09:21:21;100135.28;;;18.75;78.24
75538;BME280;64121;48.666;8.114;2022-10-16T09:23:48;100138.13;;;18.86;77.81
75538;BME280;64121;48.666;8.114;2022-10-16T09:26:15;100144.47;;;18.58;78.22
75538;BME280;64121;48.666;8.114;2022-10-16T09:28:41;100147.41;;;18.87;78.05
75538;BME280;64121;48.666;8.114;2022-10-16T09:31:13;100147.00;;;18.88;78.30
75538;BME280;64121;48.666;8.114;2022-10-16T09:33:40;100157.88;;;18.90;78.51
75538;BME280;64121;48.666;8.114;2022-10-16T09:36:08;100158.69;;;19.01;78.33
75538;BME280;64121;48.666;8.114;2022-10-16T09:38:36;100163.50;;;19.32;76.11
75538;BME280;64121;48.666;8.114;2022-10-16T09:41:03;100168.78;;;19.20;77.75
75538;BME280;64121;48.666;8.114;2022-10-16T09:43:39;100175.63;;;19.22;77.27
75538;BME280;64121;48.666;8.114;2022-10-16T09:46:07;100174.78;;;19.15;77.92
75538;BME280;64121;48.666;8.114;2022-10-16T09:48:36;100169.16;;;19.25;77.01
75538;BME280;64121;48.666;8.114;2022-10-16T09:51:03;100181.25;;;19.22;77.63
75538;BME280;64121;48.666;8.114;2022-10-16T09:53:40;100187.72;;;19.23;76.72
75538;BME280;64121;48.666;8.114;2022-10-16T09:56:06;100189.34;;;19.17;76.64
75538;BME280;64121;48.666;8.114;2022-10-16T09:58:32;100193.75;;;19.25;77.03
75538;BME280;64121;48.666;8.114;2022-10-16T10:00:58;100186.91;;;19.15;78.30
75538;BME280;64121;48.666;8.114;2022-10-16T10:03:34;100177.63;;;19.22;77.29
75538;BME280;64121;48.666;8.114;2022-10-16T10:06:06;100185.69;;;19.20;78.10
75538;BME280;64121;48.666;8.114;2022-10-16T10:08:32;100194.94;;;19.06;78.35
75538;BME280;64121;48.666;8.114;2022-10-16T10:10:59;100198.97;;;19.01;80.23
75538;BME280;64121;48.666;8.114;2022-10-16T10:13:24;100195.78;;;19.17;80.08
75538;BME280;64121;48.666;8.114;2022-10-16T10:15:50;100201.41;;;19.31;79.16
75538;BME280;64121;48.666;8.114;2022-10-16T10:18:17;100209.53;;;19.54;75.96
75538;BME280;64121;48.666;8.114;2022-10-16T10:20:43;100209.47;;;19.90;75.83
75538;BME280;64121;48.666;8.114;2022-10-16T10:23:21;100211.88;;;19.91;77.33
75538;BME280;64121;48.666;8.114;2022-10-16T10:25:53;100207.34;;;20.30;75.20
75538;BME280;64121;48.666;8.114;2022-10-16T10:28:41;100209.72;;;20.35;74.46
75538;BME280;64121;48.666;8.114;2022-10-16T10:31:14;100217.00;;;20.46;73.82
75538;BME280;64121;48.666;8.114;2022-10-16T10:33:44;100210.09;;;20.44;74.06
75538;BME280;64121;48.666;8.114;2022-10-16T10:36:20;100216.09;;;20.60;73.61
75538;BME280;64121;48.666;8.114;2022-10-16T10:38:50;100218.50;;;20.62;72.58
75538;BME280;64121;48.666;8.114;2022-10-16T10:41:32;100217.59;;;20.79;72.35
75538;BME280;64121;48.666;8.114;2022-10-16T10:44:11;100214.66;;;21.00;71.99
75538;BME280;64121;48.666;8.114;2022-10-16T10:46:45;100219.38;;;21.21;70.74
75538;BME280;64121;48.666;8.114;2022-10-16T10:49:25;100219.34;;;21.28;71.47
75538;BME280;64121;48.666;8.114;2022-10-16T10:52:02;100211.31;;;21.16;70.89
75538;BME280;64121;48.666;8.114;2022-10-16T10:54:37;100209.69;;;21.15;70.41
75538;BME280;64121;48.666;8.114;2022-10-16T10:57:10;100204.34;;;21.31;69.41
75538;BME280;64121;48.666;8.114;2022-10-16T10:59:52;100210.88;;;21.25;70.04
75538;BME280;64121;48.666;8.114;2022-10-16T11:02:25;100202.41;;;21.17;69.50
75538;BME280;64121;48.666;8.114;2022-10-16T11:05:15;100197.19;;;21.12;70.38
75538;BME280;64121;48.666;8.114;2022-10-16T11:07:49;100198.41;;;21.11;71.73
75538;BME280;64121;48.666;8.114;2022-10-16T11:10:21;100192.44;;;20.99;73.62
75538;BME280;64121;48.666;8.114;2022-10-16T11:12:49;100192.91;;;20.90;71.74
75538;BME280;64121;48.666;8.114;2022-10-16T11:15:21;100191.28;;;20.93;71.77
75538;BME280;64121;48.666;8.114;2022-10-16T11:17:52;100193.22;;;20.99;71.44
75538;BME280;64121;48.666;8.114;2022-10-16T11:20:22;100194.44;;;21.05;71.40
75538;BME280;64121;48.666;8.114;2022-10-16T11:22:51;100193.97;;;21.10;71.33
75538;BME280;64121;48.666;8.114;2022-10-16T11:25:21;100190.78;;;21.05;71.14
75538;BME280;64121;48.666;8.114;2022-10-16T11:27:50;100194.31;;;21.16;71.12
75538;BME280;64121;48.666;8.114;2022-10-16T11:30:21;100187.78;;;21.30;70.40
75538;BME280;64121;48.666;8.114;2022-10-16T11:32:54;100190.09;;;21.45;70.37
75538;BME280;64121;48.666;8.114;2022-10-16T11:35:25;100187.75;;;21.33;70.37
75538;BME280;64121;48.666;8.114;2022-10-16T11:37:56;100186.50;;;21.38;69.84
75538;BME280;64121;48.666;8.114;2022-10-16T11:40:27;100183.78;;;21.27;71.66
75538;BME280;64121;48.666;8.114;2022-10-16T11:42:57;100184.84;;;21.44;70.48
75538;BME280;64121;48.666;8.114;2022-10-16T11:45:32;100189.66;;;21.47;70.82
75538;BME280;64121;48.666;8.114;2022-10-16T11:48:02;100187.63;;;21.48;71.45
75538;BME280;64121;48.666;8.114;2022-10-16T11:50:34;100184.09;;;21.36;71.59
75538;BME280;64121;48.666;8.114;2022-10-16T11:53:05;100188.44;;;21.48;71.98
75538;BME280;64121;48.666;8.114;2022-10-16T11:55:38;100189.06;;;21.25;72.95
75538;BME280;64121;48.666;8.114;2022-10-16T11:58:06;100187.91;;;21.12;71.67
75538;BME280;64121;48.666;8.114;2022-10-16T12:00:40;100176.31;;;21.48;71.93
75538;BME280;64121;48.666;8.114;2022-10-16T12:03:17;100180.66;;;21.59;71.87
75538;BME280;64121;48.666;8.114;2022-10-16T12:05:58;100166.13;;;21.54;70.97
75538;BME280;64121;48.666;8.114;2022-10-16T12:08:27;100173.78;;;21.60;70.71
75538;BME280;64121;48.666;8.114;2022-10-16T12:10:53;100168.00;;;21.71;70.32
75538;BME280;64121;48.666;8.114;2022-10-16T12:13:29;100177.03;;;21.59;71.55
75538;BME280;64121;48.666;8.114;2022-10-16T12:16:06;100169.22;;;21.70;71.03
75538;BME280;64121;48.666;8.114;2022-10-16T12:18:31;100172.38;;;21.79;70.71
75538;BME280;64121;48.666;8.114;2022-10-16T12:20:58;100176.16;;;21.65;70.53
75538;BME280;64121;48.666;8.114;2022-10-16T12:23:24;100167.19;;;21.70;71.41
75538;BME280;64121;48.666;8.114;2022-10-16T12:25:54;100173.81;;;21.53;70.91
75538;BME280;64121;48.666;8.114;2022-10-16T12:28:21;100175.44;;;21.54;71.47
75538;BME280;64121;48.666;8.114;2022-10-16T12:30:53;100175.34;;;21.65;72.31
75538;BME280;64121;48.666;8.114;2022-10-16T12:33:22;100173.41;;;21.55;73.54
75538;BME280;64121;48.666;8.114;2022-10-16T12:35:49;100171.03;;;21.50;73.25
75538;BME280;64121;48.666;8.114;2022-10-16T12:38:17;100162.38;;;21.67;72.39
75538;BME280;64121;48.666;8.114;2022-10-16T12:40:44;100165.69;;;21.59;73.42
75538;BME280;64121;48.666;8.114;2022-10-16T12:43:24;100167.09;;;21.40;74.32
75538;BME280;64121;48.666;8.114;2022-10-16T12:45:59;100162.97;;;21.48;73.27
75538;BME280;64121;48.666;8.114;2022-10-16T12:48:26;100154.34;;;21.62;72.86
75538;BME280;64121;48.666;8.114;2022-10-16T12:50:51;100159.25;;;21.58;72.95
75538;BME280;64121;48.666;8.114;2022-10-16T12:53:19;100162.53;;;21.50;75.62
75538;BME280;64121;48.666;8.114;2022-10-16T12:56:00;100152.16;;;21.77;71.71
75538;BME280;64121;48.666;8.114;2022-10-16T12:58:48;100152.97;;;21.74;71.95
75538;BME280;64121;48.666;8.114;2022-10-16T13:01:34;100138.28;;;21.86;70.23